Woodbine, Kentucky
Current Conditions -  °F | °C
As of 10:53 AM on Thursday 18 Dec 2014 (Local Time) from KLOZ Reporting Station
Broken Clouds Broken Clouds  
Wind Chill: 33°   Ceiling: 8000
Heat Index: 33°   Visibility: 10mi
Dew Point: 27°   Wind: 0mph
Humidity: 78%   Direction: NA
Pressure: 30.23"   Gusts: NA
Location:  36.9°N, 84.09°W
Report Text: KLOZ 181553Z AUTO 00000KT 10SM BKN080 01/M03 A3023 RMK AO2 SLP246 T00061028
Loading
Personal Weather Stations






























Interactive Weather Map New forecast layout! Learn more

10-Day Weather Forecast

Advertisements
Track Severe Weather on mobile